Airfield :
LOGIN :

Register | Disclaimer

   EN    FR    IT 

 










Legend :    VFR   Marginal VFR   IFR   Intensive IFR   Very Intensive IFR
Visi :
Ceiling :
>= 8 km
>= 3000ft
5 to 8 km
1000 to 3000 ft
1500m to 5 km
500 to 1000 ft
800 to 1500m
200 to 500 ft
< 800m
< 200 ft
Symbols :   Thunderstorms  Fog  Heavy snow  Heavy precipitations  Wind > 20 kt
SIGMETs :     Misc.  Thunderstorms  Icing  Turbulence  Mountain Waves  Volcanic Ashes






- Airport Elevation : 433 ft
- IATA code : CCF


LFMK - Carcassonne

CURRENT METAR :
  • 170530Z AUTO 09006KT 9999 FEW022 12/11 Q1015 BECMG BKN010

EXPIRED METARs :
  • 170500Z AUTO 09006KT 9999 BKN019 12/11 Q1015 BECMG BKN010
  • 170430Z AUTO 10005KT 060V140 9999 FEW024 12/11 Q1015 BECMG BKN010
  • 170400Z AUTO 09007KT 9999 FEW018 12/11 Q1015 BECMG BKN010
  • 170330Z AUTO 10004KT 070V130 9999 SCT019 12/11 Q1015 BECMG BKN010
  • 170300Z AUTO VRB02KT 9999 BKN018 10/09 Q1015 BECMG 09012KT BKN010

TAF TAF LFMK
Valid from the 17 at 03:00 until the 18 at 03:00 UTC


170200Z 1703/1803 09005KT 9999 FEW015
BECMG 1703/1706 09012KT BKN010
TEMPO 1713/1716 SCT015 FEW060TCU BKN100
BECMG 1716/1718 VRB03KT



MET'MAP, your aeronautical weather chart ! - Copyright ORBIFLY December 2007 - Disclaimer

ORBIFLY MET'MAP TEAM :

Programming & Development : Alexandra Zaïnal
Concept & Development : Baudouin d'Aumeries
Co-Development & Prog : Marc-Olivier Méhu
Technical & hardware support : Manuel Goepfert

Contact : metmap@orbifly.com




SOURCES & CREDITS :

   NOAA